Boulder, MT (59632)

9:17 PM MDT on August 28, 2014 (GMT -0600)
RAWS HELENA PORTABLE #2 MT US | Change Station
CLOSE
Current Station
Personal Weather Station
Location: Clancy, MT
Elevation: 5084 ft
Nearby Weather Stations

Elev 5084 ft 46.42 °N, 111.92 °W | Updated 45 minutes ago

Clear
Clear
72 °F
Feels Like 75 °F
N
3
Wind Variable Wind from SW
Gusts 11.0 mph

Today
High -- | Low -- °F
--% Chance of Precip.
Yesterday
High -- | Low -- °F
Precip. -- in
6:43 AM 8:14 PM
Waxing Crescent, 11% visible
Pressure 29.96 in
Visibility 10.0 miles
Clouds Clear
Heat Index 75 °F
Dew Point 32 °F
Humidity 23%
Rainfall 0.00 in
Snow Depth 0 in
UV 0 out of 12
Pollen 7.60 out of 12
Air Quality Not available.
Flu Activity Not available.
METAR KBTM 290253Z AUTO 33010KT 10SM CLR 22/01 A3010 RMK AO2 SLP144 T02170006 53010

More Conditions Fewer Conditions

Pressure 29.96 in
Visibility 10.0 miles
Clouds Clear
Heat Index 75 °F
Dew Point 32 °F
Humidity 23%
Rainfall 0.00 in
Snow Depth 0 in
UV 0 out of 12
Pollen 7.60 out of 12
Air Quality Not available.
Flu Activity Not available.
METAR KBTM 290253Z AUTO 33010KT 10SM CLR 22/01 A3010 RMK AO2 SLP144 T02170006 53010

More Conditions Fewer Conditions

10-Day Weather Forecast

Almanac

Astronomy

Aug. 28, 2014 Rise Set
Actual Time 6:43 AM MDT 8:14 PM MDT
Civil Twilight 6:12 AM MDT 8:45 PM MDT
Nautical Twilight 5:34 AM MDT 9:23 PM MDT
Astronomical Twilight 4:53 AM MDT 10:04 PM MDT
Moon 9:52 AM MDT (8/28) 9:26 PM MDT (8/28)
Length of Visible Light 14h 33m
Length of Day
13h 30m
Tomorrow will be 3m 7s shorter.
Waxing Crescent, 11% of the Moon is Illuminated
Today
Waxing Crescent
Sep 2
First Quarter
Sep 8
Full
Sep 15
Last Quarter
Sep 24
New

Today's Extremes

State Highs State Lows

Community

WunderPhotos

Upload Photos

1,748,146 photos uploaded!

Nearby

Snow Depth

Station Depth Elevation
Tizer Basin 0 in 6840 ft
Brackett Creek 1 in 7320 ft
Basin Creek 0 in 7180 ft
Nevada Ridge 0 in 7020 ft
Black Pine 0 in 7210 ft

Earthquake Activity

City Distance Mag. Time & Date
No recent earthquake activity has been reported nearby.
Minimum magnitude displayed is 2.5.

Coastal Water Temperatures

Place Temperature
No Stations Reporting

Nearby Weather Stations